Thunder Mountain, Nevada
Current Conditions -  °F | °C
As of 10:56 AM on Tuesday 21 Oct 2014 (Local Time) from KWMC Reporting Station
Scattered Clouds Scattered Clouds  
Wind Chill: 51°   Ceiling: Unl
Heat Index: 51°   Visibility: 10mi
Dew Point: 32°   Wind: 9mph
Humidity: 48%   Direction: 240°WSW
Pressure: 30.13"   Gusts: NA
Location:  40.601°N, 117.984°W
Report Text: KWMC 211756Z AUTO 24008KT 200V270 10SM SCT043 11/00 A3013 RMK AO2 SLP182 T01060000 10106 20039 50009
Loading
Personal Weather Stations






























Interactive Weather Map
Tropical Storm Tracking
New forecast layout! Learn more

10-Day Weather Forecast

Advertisements
Track Severe Weather on mobile